createdAt,value
2017-07-22T00:00:04.679Z,1002.56
2017-07-22T00:01:01.099Z,1002.49
2017-07-22T00:01:58.271Z,1002.54
2017-07-22T00:02:57.555Z,1002.52
2017-07-22T00:05:01.138Z,1002.48
2017-07-22T00:05:57.536Z,1002.48
2017-07-22T00:06:53.858Z,1002.47
2017-07-22T00:07:50.260Z,1002.53
2017-07-22T00:08:46.683Z,1002.50
2017-07-22T00:09:43.094Z,1002.53
2017-07-22T00:10:39.435Z,1002.51
2017-07-22T00:11:35.775Z,1002.47
2017-07-22T00:12:32.295Z,1002.52
2017-07-22T00:13:28.642Z,1002.40
2017-07-22T00:14:24.955Z,1002.38
2017-07-22T00:15:21.331Z,1002.38
2017-07-22T00:16:17.683Z,1002.44
2017-07-22T00:18:21.356Z,1002.42
2017-07-22T00:19:17.976Z,1002.43
2017-07-22T00:20:14.375Z,1002.45
2017-07-22T00:21:11.768Z,1002.42
2017-07-22T00:22:08.200Z,1002.41
2017-07-22T00:25:17.203Z,1002.44
2017-07-22T00:26:14.540Z,1002.46
2017-07-22T00:27:11.975Z,1002.49
2017-07-22T00:28:08.383Z,1002.43
2017-07-22T00:29:04.807Z,1002.41
2017-07-22T00:30:02.104Z,1002.43
2017-07-22T00:30:58.865Z,1002.36
2017-07-22T00:31:55.258Z,1002.38
2017-07-22T00:32:51.891Z,1002.29
2017-07-22T00:33:48.303Z,1002.32
2017-07-22T00:34:44.654Z,1002.23
2017-07-22T00:41:24.124Z,1002.04
2017-07-22T00:42:20.495Z,1002.03
2017-07-22T00:43:16.927Z,1002.03
2017-07-22T00:44:13.382Z,1002.02
2017-07-22T00:45:09.835Z,1002.04
2017-07-22T00:46:06.211Z,1001.92
2017-07-22T00:47:02.620Z,1001.93
2017-07-22T00:47:58.979Z,1001.91
2017-07-22T00:48:55.371Z,1001.86
2017-07-22T00:49:51.691Z,1001.81
2017-07-22T00:50:48.085Z,1001.83
2017-07-22T00:51:44.419Z,1001.78
2017-07-22T00:53:50.922Z,1001.77
2017-07-22T00:54:47.540Z,1001.76
2017-07-22T00:55:44.004Z,1001.78
2017-07-22T00:56:40.380Z,1001.75
2017-07-22T00:57:37.856Z,1001.75
2017-07-22T00:58:35.054Z,1001.77
2017-07-22T01:00:44.335Z,1001.69
2017-07-22T01:01:40.711Z,1001.67
2017-07-22T01:02:38.067Z,1001.70
2017-07-22T01:03:34.398Z,1001.57
2017-07-22T01:04:30.783Z,1001.51
2017-07-22T01:05:27.158Z,1001.56
2017-07-22T01:07:28.552Z,1001.67
2017-07-22T01:08:24.968Z,1001.55
2017-07-22T01:09:21.363Z,1001.56
2017-07-22T01:10:17.683Z,1001.63
2017-07-22T01:11:14.024Z,1001.65
2017-07-22T01:12:10.333Z,1001.53
2017-07-22T01:13:06.713Z,1001.49
2017-07-22T01:14:03.119Z,1001.52
2017-07-22T01:14:59.486Z,1001.53
2017-07-22T01:15:55.823Z,1001.51
2017-07-22T01:16:53.044Z,1001.45
2017-07-22T01:17:49.483Z,1001.54
2017-07-22T01:18:46.699Z,1001.50
2017-07-22T01:25:33.061Z,1001.26
2017-07-22T01:26:29.589Z,1001.18
2017-07-22T01:27:27.063Z,1001.07
2017-07-22T01:31:47.413Z,1000.92
2017-07-22T01:32:43.853Z,1000.84
2017-07-22T01:33:40.255Z,1000.93
2017-07-22T01:34:39.491Z,1000.90
2017-07-22T01:35:36.831Z,1000.87
2017-07-22T01:36:34.059Z,1000.86
2017-07-22T01:37:30.428Z,1000.83
2017-07-22T01:38:26.978Z,1000.90
2017-07-22T01:41:43.841Z,1000.85
2017-07-22T01:42:40.295Z,1000.77
2017-07-22T01:43:37.512Z,1000.78
2017-07-22T01:45:43.256Z,1000.77
2017-07-22T01:46:39.707Z,1000.72
2017-07-22T01:47:36.099Z,1000.82
2017-07-22T01:48:34.263Z,1000.81
2017-07-22T01:49:30.928Z,1000.76
2017-07-22T01:50:29.345Z,1000.86
2017-07-22T01:51:25.848Z,1000.88
2017-07-22T01:52:22.312Z,1000.90
2017-07-22T01:53:18.758Z,1000.90
2017-07-22T01:54:15.175Z,1000.96
2017-07-22T01:55:11.680Z,1001.03
2017-07-22T01:56:10.051Z,1001.02
2017-07-22T01:57:06.530Z,1001.03
2017-07-22T01:58:03.847Z,1001.10
2017-07-22T01:59:03.185Z,1001.03
2017-07-22T02:01:08.811Z,1001.09
2017-07-22T02:02:05.236Z,1001.08
2017-07-22T02:03:02.596Z,1001.06
2017-07-22T02:03:58.995Z,1001.05
2017-07-22T02:06:06.695Z,1000.97
2017-07-22T02:07:03.205Z,1001.03
2017-07-22T02:07:59.624Z,1000.97
2017-07-22T02:08:55.966Z,1001.09
2017-07-22T02:09:53.323Z,1001.03
2017-07-22T02:10:49.627Z,1001.00
2017-07-22T02:11:47.077Z,1001.00
2017-07-22T02:12:44.308Z,1001.03
2017-07-22T02:13:40.707Z,1000.90
2017-07-22T02:14:37.062Z,1000.93
2017-07-22T02:15:33.427Z,1000.99
2017-07-22T02:16:30.784Z,1000.90
2017-07-22T02:17:28.987Z,1000.92
2017-07-22T02:18:26.328Z,1000.92
2017-07-22T02:19:22.739Z,1000.89
2017-07-22T02:20:19.038Z,1000.89
2017-07-22T02:21:15.495Z,1000.90
2017-07-22T02:22:12.111Z,1000.97
2017-07-22T02:23:08.504Z,1000.98
2017-07-22T02:24:04.909Z,1001.01
2017-07-22T02:25:01.271Z,1001.06
2017-07-22T02:25:57.596Z,1001.03
2017-07-22T02:26:55.831Z,1001.06
2017-07-22T02:27:54.415Z,1001.09
2017-07-22T02:28:55.960Z,1001.12
2017-07-22T02:29:54.360Z,1001.05
2017-07-22T02:30:50.759Z,1001.10
2017-07-22T02:31:48.241Z,1001.12
2017-07-22T02:32:44.690Z,1001.07
2017-07-22T02:33:43.173Z,1001.14
2017-07-22T02:34:39.510Z,1001.20
2017-07-22T02:35:38.751Z,1001.34
2017-07-22T02:36:35.984Z,1001.46
2017-07-22T02:37:33.437Z,1001.47
2017-07-22T02:38:29.839Z,1001.52
2017-07-22T02:39:26.202Z,1001.56
2017-07-22T02:40:24.403Z,1001.56
2017-07-22T02:41:20.719Z,1001.59
2017-07-22T02:42:17.060Z,1001.63
2017-07-22T02:43:13.442Z,1001.57
2017-07-22T02:44:09.763Z,1001.56
2017-07-22T02:45:06.087Z,1001.59
2017-07-22T02:46:07.172Z,1001.58
2017-07-22T02:47:03.560Z,1001.60
2017-07-22T02:48:00.847Z,1001.59
2017-07-22T02:48:57.321Z,1001.68
2017-07-22T02:49:53.731Z,1001.69
2017-07-22T02:50:50.935Z,1001.73
2017-07-22T02:51:48.219Z,1001.68
2017-07-22T02:52:44.619Z,1001.70
2017-07-22T02:53:41.123Z,1001.75
2017-07-22T02:54:39.784Z,1001.79
2017-07-22T02:55:37.159Z,1001.79
2017-07-22T02:56:34.431Z,1001.82
2017-07-22T02:57:31.859Z,1001.82
2017-07-22T02:58:29.323Z,1001.78
2017-07-22T02:59:25.726Z,1001.78
2017-07-22T03:00:22.123Z,1001.79
2017-07-22T03:01:19.560Z,1001.81
2017-07-22T03:02:16.903Z,1001.77
2017-07-22T03:03:13.254Z,1001.78
2017-07-22T03:04:10.786Z,1001.80
2017-07-22T03:05:07.195Z,1001.78
2017-07-22T03:06:03.515Z,1001.86
2017-07-22T03:07:00.743Z,1001.81
2017-07-22T03:07:57.151Z,1001.82
2017-07-22T03:08:54.488Z,1001.73
2017-07-22T03:09:50.825Z,1001.79
2017-07-22T03:10:47.963Z,1001.73
2017-07-22T03:11:44.338Z,1001.80
2017-07-22T03:12:41.464Z,1001.74
2017-07-22T03:13:37.762Z,1001.81
2017-07-22T03:14:34.094Z,1001.86
2017-07-22T03:15:30.431Z,1001.85
2017-07-22T03:16:26.742Z,1001.91
2017-07-22T03:17:23.044Z,1001.86
2017-07-22T03:18:19.321Z,1001.90
2017-07-22T03:19:15.665Z,1001.87
2017-07-22T03:20:11.998Z,1001.85
2017-07-22T03:21:08.295Z,1001.87
2017-07-22T03:22:04.611Z,1001.87
2017-07-22T03:23:00.920Z,1001.85
2017-07-22T03:23:57.241Z,1001.77
2017-07-22T03:24:53.559Z,1001.81
2017-07-22T03:25:49.863Z,1001.86
2017-07-22T03:26:46.929Z,1001.87
2017-07-22T03:27:43.227Z,1001.82
2017-07-22T03:28:39.550Z,1001.81
2017-07-22T03:29:35.891Z,1001.82
2017-07-22T03:30:32.177Z,1001.91
2017-07-22T03:31:28.456Z,1001.90
2017-07-22T03:32:24.730Z,1001.96
2017-07-22T03:33:20.997Z,1002.03
2017-07-22T03:34:17.261Z,1001.99
2017-07-22T03:35:13.531Z,1001.96
2017-07-22T03:36:09.846Z,1001.93
2017-07-22T03:37:06.122Z,1001.97
2017-07-22T03:38:02.423Z,1001.87
2017-07-22T03:38:58.694Z,1001.92
2017-07-22T03:39:54.986Z,1001.87
2017-07-22T03:40:51.287Z,1001.90
2017-07-22T03:41:47.609Z,1001.92
2017-07-22T03:42:43.950Z,1001.93
2017-07-22T03:43:40.214Z,1001.87
2017-07-22T03:44:36.518Z,1002.01
2017-07-22T03:45:32.820Z,1001.98
2017-07-22T03:46:29.118Z,1001.96
2017-07-22T03:47:25.439Z,1002.04
2017-07-22T03:48:21.824Z,1001.97
2017-07-22T03:49:18.078Z,1002.00
2017-07-22T03:50:15.334Z,1002.02
2017-07-22T03:51:11.608Z,1001.90
2017-07-22T03:52:07.919Z,1001.88
2017-07-22T03:53:04.947Z,1001.90
2017-07-22T03:54:01.311Z,1001.90
2017-07-22T03:54:57.635Z,1001.88
2017-07-22T03:55:53.975Z,1001.83
2017-07-22T03:56:50.294Z,1001.88
2017-07-22T03:57:46.598Z,1001.88
2017-07-22T03:58:42.940Z,1001.89
2017-07-22T03:59:39.257Z,1001.96
2017-07-22T04:00:35.566Z,1001.92
2017-07-22T04:01:31.856Z,1002.02
2017-07-22T04:02:28.180Z,1001.99
2017-07-22T04:03:24.452Z,1002.00
2017-07-22T04:04:20.737Z,1002.08
2017-07-22T04:05:17.911Z,1002.10
2017-07-22T04:06:14.394Z,1002.12
2017-07-22T04:07:10.735Z,1002.05
2017-07-22T04:08:07.011Z,1002.03
2017-07-22T04:09:04.075Z,1002.08
2017-07-22T04:10:00.366Z,1002.12
2017-07-22T04:10:56.724Z,1002.11
2017-07-22T04:11:54.039Z,1002.05
2017-07-22T04:12:50.422Z,1002.11
2017-07-22T04:13:46.714Z,1002.12
2017-07-22T04:14:42.971Z,1002.12
2017-07-22T04:15:39.257Z,1002.08
2017-07-22T04:16:36.631Z,1002.07
2017-07-22T04:17:33.066Z,1002.21
2017-07-22T04:18:29.352Z,1002.19
2017-07-22T04:19:25.642Z,1002.24
2017-07-22T04:20:21.963Z,1002.31
2017-07-22T04:21:18.270Z,1002.20
2017-07-22T04:22:14.603Z,1002.20
2017-07-22T04:23:10.899Z,1002.33
2017-07-22T04:24:08.027Z,1002.34
2017-07-22T04:25:05.280Z,1002.22
2017-07-22T04:26:01.591Z,1002.20
2017-07-22T04:26:57.952Z,1002.20
2017-07-22T04:27:55.310Z,1002.16
2017-07-22T04:28:52.550Z,1002.17
2017-07-22T04:29:48.862Z,1002.27
2017-07-22T04:30:45.171Z,1002.20
2017-07-22T04:31:41.462Z,1002.18
2017-07-22T04:32:37.787Z,1002.24
2017-07-22T04:33:34.098Z,1002.22
2017-07-22T04:34:30.406Z,1002.21
2017-07-22T04:35:26.707Z,1002.22
2017-07-22T04:36:23.892Z,1002.22
2017-07-22T04:37:21.220Z,1002.22
2017-07-22T04:38:17.611Z,1002.30
2017-07-22T04:39:13.944Z,1002.20
2017-07-22T04:40:10.230Z,1002.31
2017-07-22T04:41:07.353Z,1002.35
2017-07-22T04:42:03.666Z,1002.33
2017-07-22T04:42:59.994Z,1002.37
2017-07-22T04:43:56.263Z,1002.37
2017-07-22T04:44:52.542Z,1002.36
2017-07-22T04:45:49.854Z,1002.29
2017-07-22T04:46:46.987Z,1002.43
2017-07-22T04:47:43.397Z,1002.35
2017-07-22T04:48:40.579Z,1002.30
2017-07-22T04:50:50.048Z,1002.39
2017-07-22T04:51:46.435Z,1002.42
2017-07-22T04:52:42.851Z,1002.51
2017-07-22T04:53:39.138Z,1002.46
2017-07-22T04:54:35.410Z,1002.45
2017-07-22T04:55:31.779Z,1002.52
2017-07-22T04:56:28.174Z,1002.51
2017-07-22T04:57:26.295Z,1002.51
2017-07-22T04:58:24.744Z,1002.55
2017-07-22T04:59:21.132Z,1002.46
2017-07-22T05:00:17.506Z,1002.48
2017-07-22T05:01:13.890Z,1002.49
2017-07-22T05:02:11.080Z,1002.51
2017-07-22T05:03:09.411Z,1002.47
2017-07-22T05:04:05.810Z,1002.46
2017-07-22T05:05:02.246Z,1002.50
2017-07-22T05:05:59.439Z,1002.55
2017-07-22T05:06:55.773Z,1002.60
2017-07-22T05:07:52.163Z,1002.52
2017-07-22T05:08:48.453Z,1002.51
2017-07-22T05:09:44.726Z,1002.53
2017-07-22T05:10:41.018Z,1002.54
2017-07-22T05:11:37.446Z,1002.47
2017-07-22T05:12:33.718Z,1002.44
2017-07-22T05:13:30.863Z,1002.57
2017-07-22T05:14:28.210Z,1002.52
2017-07-22T05:15:24.482Z,1002.49
2017-07-22T05:16:21.894Z,1002.45
2017-07-22T05:17:18.203Z,1002.48
2017-07-22T05:18:15.463Z,1002.47
2017-07-22T05:19:12.867Z,1002.37
2017-07-22T05:20:09.363Z,1002.46
2017-07-22T05:21:05.755Z,1002.45
2017-07-22T05:22:02.107Z,1002.43
2017-07-22T05:23:00.404Z,1002.48
2017-07-22T05:23:57.724Z,1002.43
2017-07-22T05:24:54.094Z,1002.51
2017-07-22T05:25:51.202Z,1002.47
2017-07-22T05:26:47.486Z,1002.49
2017-07-22T05:27:43.775Z,1002.44
2017-07-22T05:28:40.083Z,1002.53
2017-07-22T05:29:37.242Z,1002.48
2017-07-22T05:30:33.525Z,1002.48
2017-07-22T05:31:29.914Z,1002.45
2017-07-22T05:32:26.287Z,1002.46
2017-07-22T05:33:22.729Z,1002.56
2017-07-22T05:34:19.041Z,1002.53
2017-07-22T05:35:15.411Z,1002.56
2017-07-22T05:36:12.603Z,1002.50
2017-07-22T05:37:08.862Z,1002.54
2017-07-22T05:40:18.118Z,1002.66
2017-07-22T05:41:14.514Z,1002.57
2017-07-22T05:42:10.803Z,1002.73
2017-07-22T05:43:13.284Z,1002.81
2017-07-22T05:44:15.806Z,1002.70
2017-07-22T05:45:12.299Z,1002.76
2017-07-22T05:46:08.667Z,1002.71
2017-07-22T05:47:04.953Z,1002.73
2017-07-22T05:48:06.460Z,1002.71
2017-07-22T05:49:02.830Z,1002.73
2017-07-22T05:49:59.136Z,1002.74
2017-07-22T05:50:55.424Z,1002.81
2017-07-22T05:51:51.718Z,1002.79
2017-07-22T05:52:49.043Z,1002.74
2017-07-22T05:53:45.323Z,1002.81
2017-07-22T05:54:42.359Z,1002.84
2017-07-22T05:55:38.653Z,1002.77
2017-07-22T05:56:35.714Z,1002.83
2017-07-22T05:57:32.035Z,1002.78
2017-07-22T05:59:36.904Z,1002.74
2017-07-22T06:00:33.267Z,1002.76
2017-07-22T06:01:29.623Z,1002.86
2017-07-22T06:02:25.995Z,1002.81
2017-07-22T06:03:22.345Z,1002.77
2017-07-22T06:04:19.466Z,1002.80
2017-07-22T06:05:15.747Z,1002.76
2017-07-22T06:08:29.584Z,1002.82
2017-07-22T06:09:26.101Z,1002.80
2017-07-22T06:10:23.340Z,1002.80
2017-07-22T06:11:19.650Z,1002.85
2017-07-22T06:12:16.175Z,1002.81
2017-07-22T06:13:12.463Z,1002.84
2017-07-22T06:14:08.747Z,1002.87
2017-07-22T06:15:05.987Z,1002.90
2017-07-22T06:16:02.976Z,1003.01
2017-07-22T06:16:59.343Z,1003.02
2017-07-22T06:17:55.671Z,1003.07
2017-07-22T06:18:52.018Z,1003.09
2017-07-22T06:19:48.558Z,1003.04
2017-07-22T06:20:46.015Z,1003.06
2017-07-22T06:21:42.307Z,1003.10
2017-07-22T06:22:39.458Z,1003.01
2017-07-22T06:23:35.766Z,1003.07
2017-07-22T06:24:32.090Z,1003.05
2017-07-22T06:25:28.374Z,1003.02
2017-07-22T06:26:24.650Z,1003.03
2017-07-22T06:27:23.011Z,1003.09
2017-07-22T06:28:19.318Z,1002.98
2017-07-22T06:29:15.582Z,1003.02
2017-07-22T06:30:12.695Z,1003.05
2017-07-22T06:31:09.911Z,1003.00
2017-07-22T06:32:07.355Z,1003.07
2017-07-22T06:33:03.707Z,1003.09
2017-07-22T06:33:59.997Z,1003.03
2017-07-22T06:34:56.274Z,1003.07
2017-07-22T06:35:53.358Z,1003.11
2017-07-22T06:36:49.630Z,1003.13
2017-07-22T06:37:45.894Z,1003.14
2017-07-22T06:38:42.195Z,1003.12
2017-07-22T06:39:39.458Z,1003.11
2017-07-22T06:40:36.643Z,1003.14
2017-07-22T06:41:33.886Z,1003.16
2017-07-22T06:42:31.091Z,1003.06
2017-07-22T06:43:27.351Z,1003.13
2017-07-22T06:44:24.701Z,1003.03
2017-07-22T06:45:21.130Z,1003.09
2017-07-22T06:46:18.407Z,1003.09
2017-07-22T06:47:15.523Z,1003.07
2017-07-22T06:48:11.802Z,1003.03
2017-07-22T06:49:08.123Z,1003.04
2017-07-22T06:50:04.442Z,1003.11
2017-07-22T06:51:00.727Z,1003.09
2017-07-22T06:51:58.111Z,1003.12
2017-07-22T06:52:54.434Z,1003.05
2017-07-22T06:53:51.727Z,1003.12
2017-07-22T06:54:48.125Z,1003.11
2017-07-22T06:55:44.442Z,1003.07
2017-07-22T06:56:43.607Z,1003.06
2017-07-22T06:57:40.715Z,1003.03
2017-07-22T06:58:37.203Z,1003.05
2017-07-22T06:59:33.462Z,1003.08
2017-07-22T07:00:29.735Z,1003.14
2017-07-22T07:01:25.997Z,1003.09
2017-07-22T07:02:22.302Z,1003.07
2017-07-22T07:03:18.570Z,1003.10
2017-07-22T07:04:14.877Z,1003.08
2017-07-22T07:05:12.139Z,1003.15
2017-07-22T07:06:09.218Z,1003.07
2017-07-22T07:07:05.507Z,1003.09
2017-07-22T07:08:01.780Z,1003.07
2017-07-22T07:08:58.058Z,1003.11
2017-07-22T07:09:54.314Z,1003.08
2017-07-22T07:10:50.686Z,1003.12
2017-07-22T07:11:46.976Z,1003.15
2017-07-22T07:12:43.262Z,1003.16
2017-07-22T07:13:39.554Z,1003.19
2017-07-22T07:14:35.815Z,1003.22
2017-07-22T07:15:32.122Z,1003.24
2017-07-22T07:16:28.435Z,1003.20
2017-07-22T07:17:24.727Z,1003.17
2017-07-22T07:18:20.974Z,1003.21
2017-07-22T07:19:17.270Z,1003.26
2017-07-22T07:20:14.473Z,1003.30
2017-07-22T07:21:10.730Z,1003.20
2017-07-22T07:22:07.022Z,1003.30
2017-07-22T07:23:03.278Z,1003.30
2017-07-22T07:24:01.391Z,1003.28
2017-07-22T07:24:59.760Z,1003.34
2017-07-22T07:25:56.162Z,1003.31
2017-07-22T07:26:52.497Z,1003.29
2017-07-22T07:27:48.815Z,1003.36
2017-07-22T07:28:45.067Z,1003.32
2017-07-22T07:29:41.330Z,1003.35
2017-07-22T07:30:37.582Z,1003.39
2017-07-22T07:31:34.739Z,1003.27
2017-07-22T07:32:31.906Z,1003.36
2017-07-22T07:33:29.082Z,1003.40
2017-07-22T07:34:26.243Z,1003.39
2017-07-22T07:35:23.407Z,1003.33
2017-07-22T07:36:20.581Z,1003.40
2017-07-22T07:37:17.782Z,1003.38
2017-07-22T07:38:14.110Z,1003.36
2017-07-22T07:39:10.622Z,1003.37
2017-07-22T07:40:06.878Z,1003.36
2017-07-22T07:41:03.135Z,1003.32
2017-07-22T07:41:59.389Z,1003.35
2017-07-22T07:42:55.654Z,1003.31
2017-07-22T07:43:51.907Z,1003.37
2017-07-22T07:44:48.166Z,1003.31
2017-07-22T07:45:44.418Z,1003.39
2017-07-22T07:46:40.669Z,1003.37
2017-07-22T07:47:36.922Z,1003.32
2017-07-22T07:48:33.191Z,1003.41
2017-07-22T07:49:29.438Z,1003.46
2017-07-22T07:50:25.679Z,1003.35
2017-07-22T07:51:21.939Z,1003.38
2017-07-22T07:52:18.219Z,1003.34
2017-07-22T07:53:15.402Z,1003.40
2017-07-22T07:54:11.655Z,1003.41
2017-07-22T07:55:07.896Z,1003.34
2017-07-22T07:56:04.138Z,1003.34
2017-07-22T07:57:00.378Z,1003.38
2017-07-22T07:57:56.653Z,1003.34
2017-07-22T07:58:52.966Z,1003.34
2017-07-22T07:59:49.214Z,1003.32
2017-07-22T08:00:45.459Z,1003.40
2017-07-22T08:01:41.698Z,1003.37
2017-07-22T08:02:37.943Z,1003.36
2017-07-22T08:03:34.203Z,1003.37
2017-07-22T08:04:30.438Z,1003.43
2017-07-22T08:05:26.675Z,1003.39
2017-07-22T08:06:22.926Z,1003.40
2017-07-22T08:07:19.184Z,1003.38
2017-07-22T08:08:15.457Z,1003.39
2017-07-22T08:09:11.715Z,1003.39
2017-07-22T08:10:07.971Z,1003.40
2017-07-22T08:11:04.210Z,1003.43
2017-07-22T08:12:00.458Z,1003.39
2017-07-22T08:12:56.727Z,1003.37
2017-07-22T08:13:52.963Z,1003.32
2017-07-22T08:14:49.246Z,1003.40
2017-07-22T08:15:45.478Z,1003.35
2017-07-22T08:16:41.727Z,1003.38
2017-07-22T08:17:37.975Z,1003.45
2017-07-22T08:18:34.238Z,1003.40
2017-07-22T08:19:30.482Z,1003.39
2017-07-22T08:20:26.726Z,1003.34
2017-07-22T08:21:22.970Z,1003.32
2017-07-22T08:22:19.215Z,1003.29
2017-07-22T08:23:15.470Z,1003.35
2017-07-22T08:24:11.718Z,1003.39
2017-07-22T08:25:07.964Z,1003.33
2017-07-22T08:26:04.223Z,1003.38
2017-07-22T08:27:00.470Z,1003.40
2017-07-22T08:27:56.706Z,1003.39
2017-07-22T08:28:52.968Z,1003.38
2017-07-22T08:29:49.222Z,1003.40
2017-07-22T08:30:45.478Z,1003.44
2017-07-22T08:31:41.726Z,1003.40
2017-07-22T08:32:37.984Z,1003.41
2017-07-22T08:33:34.274Z,1003.40
2017-07-22T08:34:30.763Z,1003.35
2017-07-22T08:35:26.999Z,1003.29
2017-07-22T08:36:23.258Z,1003.34
2017-07-22T08:37:19.537Z,1003.32
2017-07-22T08:38:15.774Z,1003.32
2017-07-22T08:39:12.046Z,1003.35
2017-07-22T08:40:08.308Z,1003.40
2017-07-22T08:41:04.564Z,1003.41
2017-07-22T08:42:00.835Z,1003.44
2017-07-22T08:42:57.087Z,1003.42
2017-07-22T08:43:53.367Z,1003.47
2017-07-22T08:44:49.606Z,1003.39
2017-07-22T08:45:45.859Z,1003.52
2017-07-22T08:46:42.103Z,1003.37
2017-07-22T08:47:38.338Z,1003.47
2017-07-22T08:48:34.599Z,1003.46
2017-07-22T08:49:30.854Z,1003.47
2017-07-22T08:50:27.102Z,1003.43
2017-07-22T08:51:23.360Z,1003.47
2017-07-22T08:52:19.625Z,1003.51
2017-07-22T08:53:15.870Z,1003.43
2017-07-22T08:54:12.117Z,1003.50
2017-07-22T08:55:08.399Z,1003.55
2017-07-22T08:56:04.711Z,1003.53
2017-07-22T08:57:00.954Z,1003.45
2017-07-22T08:57:57.207Z,1003.47
2017-07-22T08:58:53.463Z,1003.45
2017-07-22T08:59:49.746Z,1003.47
2017-07-22T09:00:45.999Z,1003.51
2017-07-22T09:01:42.247Z,1003.50
2017-07-22T09:02:38.546Z,1003.47
2017-07-22T09:03:34.807Z,1003.52
2017-07-22T09:04:31.054Z,1003.62
2017-07-22T09:05:27.318Z,1003.55
2017-07-22T09:06:23.562Z,1003.54
2017-07-22T09:07:19.815Z,1003.56
2017-07-22T09:08:16.058Z,1003.54
2017-07-22T09:09:12.309Z,1003.60
2017-07-22T09:10:08.588Z,1003.55
2017-07-22T09:11:04.835Z,1003.62
2017-07-22T09:12:01.070Z,1003.65
2017-07-22T09:12:57.327Z,1003.66
2017-07-22T09:13:53.571Z,1003.62
2017-07-22T09:14:49.820Z,1003.55
2017-07-22T09:15:46.090Z,1003.54
2017-07-22T09:16:42.326Z,1003.56
2017-07-22T09:17:38.573Z,1003.54
2017-07-22T09:18:34.847Z,1003.55
2017-07-22T09:19:31.098Z,1003.48
2017-07-22T09:20:27.359Z,1003.46
2017-07-22T09:21:23.615Z,1003.53
2017-07-22T09:22:19.884Z,1003.59
2017-07-22T09:23:16.134Z,1003.55
2017-07-22T09:24:12.386Z,1003.57
2017-07-22T09:25:08.642Z,1003.59
2017-07-22T09:26:04.902Z,1003.57
2017-07-22T09:27:01.151Z,1003.48
2017-07-22T09:27:57.414Z,1003.57
2017-07-22T09:28:53.704Z,1003.45
2017-07-22T09:29:49.931Z,1003.47
2017-07-22T09:30:46.174Z,1003.45
2017-07-22T09:31:42.439Z,1003.54
2017-07-22T09:32:38.683Z,1003.55
2017-07-22T09:33:35.382Z,1003.52
2017-07-22T09:34:31.649Z,1003.53
2017-07-22T09:35:27.914Z,1003.49
2017-07-22T09:36:24.179Z,1003.49
2017-07-22T09:37:20.483Z,1003.46
2017-07-22T09:38:16.747Z,1003.49
2017-07-22T09:39:13.003Z,1003.50
2017-07-22T09:40:09.275Z,1003.47
2017-07-22T09:41:05.578Z,1003.52
2017-07-22T09:42:01.830Z,1003.44
2017-07-22T09:42:58.093Z,1003.50
2017-07-22T09:43:54.371Z,1003.49
2017-07-22T09:44:50.630Z,1003.43
2017-07-22T09:45:46.893Z,1003.44
2017-07-22T09:46:43.154Z,1003.46
2017-07-22T09:47:39.475Z,1003.46
2017-07-22T09:48:35.731Z,1003.46
2017-07-22T09:49:31.998Z,1003.45
2017-07-22T09:50:28.246Z,1003.48
2017-07-22T09:51:24.495Z,1003.51
2017-07-22T09:52:20.797Z,1003.46
2017-07-22T09:53:17.185Z,1003.52
2017-07-22T09:54:13.439Z,1003.52
2017-07-22T09:55:09.714Z,1003.56
2017-07-22T09:56:05.959Z,1003.52
2017-07-22T09:57:02.246Z,1003.57
2017-07-22T09:57:58.539Z,1003.65
2017-07-22T09:58:54.782Z,1003.57
2017-07-22T09:59:51.043Z,1003.59
2017-07-22T10:00:47.290Z,1003.62
2017-07-22T10:01:43.539Z,1003.54
2017-07-22T10:02:39.807Z,1003.50
2017-07-22T10:03:36.054Z,1003.52
2017-07-22T10:04:32.302Z,1003.49
2017-07-22T10:05:28.552Z,1003.58
2017-07-22T10:06:24.811Z,1003.52
2017-07-22T10:07:21.073Z,1003.56
2017-07-22T10:08:17.322Z,1003.58
2017-07-22T10:09:13.576Z,1003.51
2017-07-22T10:10:09.838Z,1003.56
2017-07-22T10:11:06.090Z,1003.52
2017-07-22T10:12:02.354Z,1003.46
2017-07-22T10:12:58.619Z,1003.51
2017-07-22T10:13:54.874Z,1003.46
2017-07-22T10:14:52.173Z,1003.45
2017-07-22T10:15:48.438Z,1003.47
2017-07-22T10:16:44.722Z,1003.43
2017-07-22T10:17:40.993Z,1003.50
2017-07-22T10:18:37.242Z,1003.40
2017-07-22T10:19:33.492Z,1003.46
2017-07-22T10:20:29.742Z,1003.45
2017-07-22T10:21:26.315Z,1003.39
2017-07-22T10:22:22.578Z,1003.40
2017-07-22T10:23:18.843Z,1003.46
2017-07-22T10:24:15.090Z,1003.44
2017-07-22T10:25:11.347Z,1003.49
2017-07-22T10:26:07.598Z,1003.45
2017-07-22T10:27:03.852Z,1003.45
2017-07-22T10:28:00.118Z,1003.42
2017-07-22T10:28:56.358Z,1003.46
2017-07-22T10:29:52.606Z,1003.45
2017-07-22T10:30:48.863Z,1003.39
2017-07-22T10:31:45.111Z,1003.43
2017-07-22T10:32:41.379Z,1003.48
2017-07-22T10:33:37.643Z,1003.46
2017-07-22T10:34:33.919Z,1003.51
2017-07-22T10:35:30.175Z,1003.49
2017-07-22T10:36:26.422Z,1003.40
2017-07-22T10:37:22.674Z,1003.39
2017-07-22T10:38:18.966Z,1003.39
2017-07-22T10:39:15.230Z,1003.32
2017-07-22T10:40:11.495Z,1003.30
2017-07-22T10:41:07.747Z,1003.29
2017-07-22T10:42:03.995Z,1003.36
2017-07-22T10:43:00.265Z,1003.36
2017-07-22T10:43:56.526Z,1003.31
2017-07-22T10:44:52.782Z,1003.40
2017-07-22T10:45:49.042Z,1003.35
2017-07-22T10:46:45.298Z,1003.28
2017-07-22T10:47:41.558Z,1003.38
2017-07-22T10:48:37.798Z,1003.40
2017-07-22T10:49:34.055Z,1003.35
2017-07-22T10:50:30.298Z,1003.31
2017-07-22T10:51:26.559Z,1003.30
2017-07-22T10:52:22.827Z,1003.31
2017-07-22T10:53:19.071Z,1003.35
2017-07-22T10:54:15.351Z,1003.38
2017-07-22T10:55:11.598Z,1003.32
2017-07-22T10:56:07.842Z,1003.33
2017-07-22T10:57:04.105Z,1003.29
2017-07-22T10:58:00.369Z,1003.24
2017-07-22T10:58:56.610Z,1003.28
2017-07-22T10:59:52.879Z,1003.21
2017-07-22T11:00:49.122Z,1003.33
2017-07-22T11:01:45.387Z,1003.27
2017-07-22T11:02:41.633Z,1003.34
2017-07-22T11:03:37.875Z,1003.29
2017-07-22T11:04:34.138Z,1003.30
2017-07-22T11:05:30.399Z,1003.36
2017-07-22T11:06:26.754Z,1003.24
2017-07-22T11:07:23.003Z,1003.26
2017-07-22T11:08:19.310Z,1003.33
2017-07-22T11:09:15.558Z,1003.22
2017-07-22T11:10:11.950Z,1003.35
2017-07-22T11:11:08.242Z,1003.35
2017-07-22T11:12:09.463Z,1003.28
2017-07-22T11:13:05.703Z,1003.42
2017-07-22T11:14:01.970Z,1003.31
2017-07-22T11:14:58.235Z,1003.39
2017-07-22T11:15:54.486Z,1003.27
2017-07-22T11:16:50.728Z,1003.40
2017-07-22T11:17:46.967Z,1003.39
2017-07-22T11:18:43.215Z,1003.45
2017-07-22T11:19:39.474Z,1003.39
2017-07-22T11:20:35.727Z,1003.34
2017-07-22T11:21:32.027Z,1003.35
2017-07-22T11:22:28.329Z,1003.45
2017-07-22T11:23:24.577Z,1003.37
2017-07-22T11:24:20.818Z,1003.28
2017-07-22T11:25:17.075Z,1003.36
2017-07-22T11:26:13.334Z,1003.29
2017-07-22T11:27:09.582Z,1003.30
2017-07-22T11:28:05.903Z,1003.29
2017-07-22T11:29:02.152Z,1003.26
2017-07-22T11:29:58.412Z,1003.32
2017-07-22T11:30:54.667Z,1003.26
2017-07-22T11:31:50.907Z,1003.32
2017-07-22T11:32:47.154Z,1003.31
2017-07-22T11:33:43.399Z,1003.27
2017-07-22T11:34:39.650Z,1003.29
2017-07-22T11:35:35.898Z,1003.26
2017-07-22T11:36:32.170Z,1003.32
2017-07-22T11:37:28.414Z,1003.26
2017-07-22T11:38:24.665Z,1003.29
2017-07-22T11:39:20.976Z,1003.37
2017-07-22T11:40:17.228Z,1003.34
2017-07-22T11:41:13.485Z,1003.33
2017-07-22T11:42:09.743Z,1003.27
2017-07-22T11:43:05.999Z,1003.35
2017-07-22T11:44:02.266Z,1003.33
2017-07-22T11:44:58.523Z,1003.35
2017-07-22T11:45:54.811Z,1003.29
2017-07-22T11:46:51.066Z,1003.22
2017-07-22T11:47:47.298Z,1003.28
2017-07-22T11:48:43.543Z,1003.24
2017-07-22T11:49:39.780Z,1003.24
2017-07-22T11:50:36.057Z,1003.30
2017-07-22T11:51:32.368Z,1003.28
2017-07-22T11:52:28.662Z,1003.35
2017-07-22T11:53:24.907Z,1003.35
2017-07-22T11:54:21.155Z,1003.32
2017-07-22T11:55:18.478Z,1003.42
2017-07-22T11:56:14.730Z,1003.44
2017-07-22T11:57:10.981Z,1003.46
2017-07-22T11:58:07.274Z,1003.46
2017-07-22T11:59:03.611Z,1003.46